Time;durP1;ratioP1;P1;durP2;ratioP2;P2;SDS_P1;SDS_P2;PMS_P1;PMS_P2;Temp;Humidity;BMP_temperature;BMP_pressure;BME280_temperature;BME280_humidity;BME280_pressure;Samples;Min_cycle;Max_cycle;Signal;HPM_P1;HPM_P2
2022/05/23 00:00:29;;;;;;;2.60;2.40;;;;;;;;;;2073908;28;20268;-58
2022/05/23 00:01:30;;;;;;;3.33;2.78;;;;;;;;;;2073118;28;20173;-58
2022/05/23 00:02:30;;;;;;;3.00;2.30;;;;;;;;;;2073217;28;20184;-57
2022/05/23 00:03:31;;;;;;;3.15;2.78;;;;;;;;;;2073547;28;20196;-57
2022/05/23 00:04:31;;;;;;;3.28;2.85;;;;;;;;;;2072536;28;20200;-55
2022/05/23 00:05:32;;;;;;;2.85;2.60;;;;;;;;;;2073320;28;20188;-57
2022/05/23 00:06:32;;;;;;;4.90;2.83;;;;;;;;;;2073205;28;20176;-58
2022/05/23 00:07:35;;;;;;;2.88;2.55;;;;;;;;;;2073621;28;20217;-57
2022/05/23 00:08:35;;;;;;;2.88;2.60;;;;;;;;;;2073392;28;20235;-55
2022/05/23 00:09:35;;;;;;;4.15;2.58;;;;;;;;;;2073230;28;20169;-53
2022/05/23 00:10:36;;;;;;;4.40;2.30;;;;;;;;;;2074170;28;20196;-52
2022/05/23 00:11:36;;;;;;;3.90;2.50;;;;;;;;;;2074239;28;20200;-57
2022/05/23 00:12:37;;;;;;;4.43;2.47;;;;;;;;;;2073548;28;20169;-55
2022/05/23 00:13:37;;;;;;;4.25;2.80;;;;;;;;;;2073507;28;20176;-60
2022/05/23 00:14:37;;;;;;;2.40;2.20;;;;;;;;;;2072656;28;20216;-57
2022/05/23 00:15:38;;;;;;;3.17;2.80;;;;;;;;;;2086111;23;20254;-55
2022/05/23 00:16:43;;;;;;;4.82;2.75;;;;;;;;;;2080970;28;20180;-55
2022/05/23 00:17:44;;;;;;;4.82;2.63;;;;;;;;;;2080728;28;20179;-54
2022/05/23 00:18:46;;;;;;;2.45;2.25;;;;;;;;;;2081706;28;20172;-54
2022/05/23 00:19:47;;;;;;;2.92;2.53;;;;;;;;;;2080383;28;20248;-56
2022/05/23 00:20:47;;;;;;;4.57;2.72;;;;;;;;;;2081347;28;20180;-54
2022/05/23 00:21:47;;;;;;;3.35;2.65;;;;;;;;;;2081236;28;20215;-54
2022/05/23 00:22:47;;;;;;;4.90;3.28;;;;;;;;;;2081445;28;20172;-53
2022/05/23 00:23:48;;;;;;;3.92;2.60;;;;;;;;;;2081203;28;20676;-58
2022/05/23 00:24:49;;;;;;;3.45;2.63;;;;;;;;;;2081556;28;20164;-56
2022/05/23 00:25:49;;;;;;;2.90;2.53;;;;;;;;;;2081793;28;20691;-56
2022/05/23 00:26:50;;;;;;;2.95;2.60;;;;;;;;;;2082725;28;20191;-54
2022/05/23 00:27:50;;;;;;;2.95;2.30;;;;;;;;;;2085140;28;20195;-57
2022/05/23 00:28:51;;;;;;;3.80;2.65;;;;;;;;;;2085332;28;20206;-55
2022/05/23 00:29:51;;;;;;;2.42;2.33;;;;;;;;;;2086197;28;20172;-54
2022/05/23 00:30:52;;;;;;;3.53;2.80;;;;;;;;;;2086432;28;20199;-57
2022/05/23 00:35:53;;;;;;;2.70;2.50;;;;;;;;;;2089604;28;20196;-56
2022/05/23 00:36:53;;;;;;;5.80;2.40;;;;;;;;;;2084859;28;20168;-55
2022/05/23 00:37:55;;;;;;;2.80;2.40;;;;;;;;;;2085708;28;20168;-54
2022/05/23 00:38:56;;;;;;;3.08;2.75;;;;;;;;;;2083018;28;20184;-59
2022/05/23 00:39:57;;;;;;;3.33;2.50;;;;;;;;;;2082068;28;20177;-59
2022/05/23 00:43:53;;;;;;;4.03;2.67;;;;;;;;;;2082478;28;20220;-56
2022/05/23 00:44:55;;;;;;;4.97;3.05;;;;;;;;;;2082314;28;20179;-58
2022/05/23 00:46:01;;;;;;;3.08;2.63;;;;;;;;;;2082808;28;20191;-56
2022/05/23 00:47:03;;;;;;;3.33;2.75;;;;;;;;;;2083157;28;20172;-55
2022/05/23 00:48:04;;;;;;;3.63;2.88;;;;;;;;;;2083306;28;20255;-57
2022/05/23 00:49:07;;;;;;;4.32;2.92;;;;;;;;;;2076804;28;20169;-56
2022/05/23 00:50:09;;;;;;;3.15;2.95;;;;;;;;;;2080379;28;20169;-56
2022/05/23 00:51:11;;;;;;;2.88;2.60;;;;;;;;;;2082239;28;20247;-58
2022/05/23 00:52:15;;;;;;;5.93;3.00;;;;;;;;;;2082660;28;20168;-57
2022/05/23 00:53:15;;;;;;;2.65;2.45;;;;;;;;;;2083190;28;20233;-56
2022/05/23 00:54:16;;;;;;;6.07;2.78;;;;;;;;;;2082083;28;20633;-55
2022/05/23 00:55:22;;;;;;;2.95;2.60;;;;;;;;;;2082166;28;20189;-58
2022/05/23 00:56:25;;;;;;;2.92;2.70;;;;;;;;;;2074385;28;20668;-56
2022/05/23 00:57:27;;;;;;;2.75;2.55;;;;;;;;;;2082150;28;20184;-56
2022/05/23 00:58:31;;;;;;;2.83;2.65;;;;;;;;;;2082776;28;20714;-54
2022/05/23 00:59:32;;;;;;;3.72;2.67;;;;;;;;;;2082748;28;20176;-54
2022/05/23 01:00:33;;;;;;;2.83;2.63;;;;;;;;;;2082050;28;20244;-57
2022/05/23 01:01:34;;;;;;;3.20;3.00;;;;;;;;;;2082112;28;20387;-57
2022/05/23 01:02:36;;;;;;;3.38;3.13;;;;;;;;;;2082765;28;20263;-57
2022/05/23 01:03:36;;;;;;;3.20;2.65;;;;;;;;;;2074813;28;20549;-54
2022/05/23 01:04:37;;;;;;;2.90;2.70;;;;;;;;;;2070011;28;20200;-58
2022/05/23 01:05:38;;;;;;;3.13;2.83;;;;;;;;;;2078340;28;20208;-54
2022/05/23 01:06:38;;;;;;;3.65;3.20;;;;;;;;;;2086252;28;20160;-54
2022/05/23 01:07:39;;;;;;;3.83;3.28;;;;;;;;;;2087164;28;20234;-54
2022/05/23 01:08:40;;;;;;;3.47;3.08;;;;;;;;;;2087250;28;20168;-54
2022/05/23 01:09:40;;;;;;;4.13;2.78;;;;;;;;;;2086796;28;20185;-54
2022/05/23 01:10:40;;;;;;;3.38;3.10;;;;;;;;;;2086229;28;20278;-55
2022/05/23 01:11:41;;;;;;;3.38;3.08;;;;;;;;;;2086288;28;20203;-54
2022/05/23 01:12:41;;;;;;;3.60;3.30;;;;;;;;;;2086391;28;20192;-53
2022/05/23 01:13:43;;;;;;;6.00;3.35;;;;;;;;;;2086132;28;20172;-54
2022/05/23 01:14:51;;;;;;;3.40;3.00;;;;;;;;;;2085049;28;20187;-53
2022/05/23 01:15:51;;;;;;;4.90;3.17;;;;;;;;;;2085419;28;20218;-53
2022/05/23 01:16:57;;;;;;;3.90;3.10;;;;;;;;;;2086323;28;20171;-54
2022/05/23 01:17:57;;;;;;;4.47;3.13;;;;;;;;;;2086070;28;20609;-54
2022/05/23 01:18:58;;;;;;;14.07;3.03;;;;;;;;;;2085487;28;20576;-55
2022/05/23 01:19:58;;;;;;;3.53;2.88;;;;;;;;;;2075044;28;20603;-53
2022/05/23 01:21:03;;;;;;;3.97;2.70;;;;;;;;;;2069427;28;20184;-57
2022/05/23 01:22:07;;;;;;;3.85;2.95;;;;;;;;;;2070162;28;20204;-54
2022/05/23 01:23:21;;;;;;;4.38;3.10;;;;;;;;;;2079735;28;20239;-55
2022/05/23 01:24:53;;;;;;;4.68;3.05;;;;;;;;;;2070822;28;20196;-55
2022/05/23 01:25:54;;;;;;;4.10;2.80;;;;;;;;;;2082935;28;20239;-54
2022/05/23 01:27:12;;;;;;;3.45;3.15;;;;;;;;;;2091783;28;20255;-53
2022/05/23 01:28:13;;;;;;;3.60;3.13;;;;;;;;;;2074923;28;20676;-57
2022/05/23 01:29:14;;;;;;;4.63;2.65;;;;;;;;;;2073870;28;20177;-54
2022/05/23 01:30:23;;;;;;;3.90;3.08;;;;;;;;;;2087026;28;20183;-54
2022/05/23 01:31:41;;;;;;;3.33;3.03;;;;;;;;;;2093230;28;20213;-53
2022/05/23 01:32:51;;;;;;;4.20;3.60;;;;;;;;;;2084855;28;20183;-53
2022/05/23 01:33:52;;;;;;;5.38;3.10;;;;;;;;;;2074765;28;20620;-56
2022/05/23 01:34:52;;;;;;;4.60;3.22;;;;;;;;;;2081913;28;20204;-55
2022/05/23 01:35:57;;;;;;;7.57;3.33;;;;;;;;;;2082884;28;20180;-54
2022/05/23 01:36:59;;;;;;;5.07;3.00;;;;;;;;;;2075092;28;20184;-56
2022/05/23 01:38:02;;;;;;;3.97;3.28;;;;;;;;;;2082831;28;20160;-55
2022/05/23 01:39:23;;;;;;;4.15;3.25;;;;;;;;;;2082430;28;20606;-55
2022/05/23 01:40:23;;;;;;;4.75;3.13;;;;;;;;;;2082380;28;20242;-56
2022/05/23 01:41:28;;;;;;;5.47;3.22;;;;;;;;;;2082591;28;20202;-58
2022/05/23 01:42:35;;;;;;;4.00;3.03;;;;;;;;;;2075268;28;20188;-55
2022/05/23 01:43:35;;;;;;;3.15;2.95;;;;;;;;;;2073710;28;20171;-55
2022/05/23 01:45:00;;;;;;;3.50;3.22;;;;;;;;;;2082739;28;20192;-57
2022/05/23 01:46:01;;;;;;;3.58;3.28;;;;;;;;;;2081420;28;20216;-56
2022/05/23 01:47:21;;;;;;;4.22;3.60;;;;;;;;;;2084138;28;20715;-55
2022/05/23 01:48:30;;;;;;;5.35;3.50;;;;;;;;;;2082577;28;20160;-55
2022/05/23 01:49:30;;;;;;;4.63;3.30;;;;;;;;;;2082381;28;20266;-54
2022/05/23 01:50:34;;;;;;;4.25;3.70;;;;;;;;;;2090432;28;20171;-57
2022/05/23 01:51:37;;;;;;;8.55;3.63;;;;;;;;;;2089725;28;20162;-57
2022/05/23 01:52:38;;;;;;;4.93;3.75;;;;;;;;;;2082637;28;20645;-56
2022/05/23 01:53:51;;;;;;;5.53;3.97;;;;;;;;;;2080992;28;20234;-58
2022/05/23 01:54:52;;;;;;;6.25;3.60;;;;;;;;;;2081435;28;20672;-57
2022/05/23 01:55:52;;;;;;;5.63;3.50;;;;;;;;;;2073604;28;20197;-56
2022/05/23 01:56:57;;;;;;;3.53;3.20;;;;;;;;;;2082047;28;20718;-56
2022/05/23 01:57:59;;;;;;;5.72;3.78;;;;;;;;;;2081406;28;20179;-55
2022/05/23 02:01:40;;;;;;;4.85;3.72;;;;;;;;;;2076058;28;20770;-56
2022/05/23 02:02:47;;;;;;;4.13;3.67;;;;;;;;;;2081476;28;20242;-57
2022/05/23 02:03:50;;;;;;;4.15;3.75;;;;;;;;;;2074408;28;20646;-55
2022/05/23 02:04:54;;;;;;;9.30;3.80;;;;;;;;;;2080871;28;20169;-56
2022/05/23 02:05:54;;;;;;;4.93;3.80;;;;;;;;;;2073716;28;20975;-55
2022/05/23 02:06:55;;;;;;;6.03;3.60;;;;;;;;;;2081608;28;20172;-59
2022/05/23 02:07:57;;;;;;;5.28;4.22;;;;;;;;;;2081362;28;20173;-57
2022/05/23 02:08:58;;;;;;;5.10;3.45;;;;;;;;;;2081282;28;20176;-57
2022/05/23 02:10:04;;;;;;;4.05;3.65;;;;;;;;;;2081335;28;20199;-56
2022/05/23 02:11:11;;;;;;;4.80;3.85;;;;;;;;;;2083031;28;20231;-57
2022/05/23 02:12:12;;;;;;;5.70;4.15;;;;;;;;;;2081469;28;20164;-54
2022/05/23 02:13:12;;;;;;;5.63;3.92;;;;;;;;;;2081675;28;20251;-53
2022/05/23 02:14:13;;;;;;;4.15;3.85;;;;;;;;;;2080467;28;20180;-56
2022/05/23 02:15:18;;;;;;;4.10;3.70;;;;;;;;;;2081481;28;20690;-55
2022/05/23 02:16:44;;;;;;;4.88;3.75;;;;;;;;;;2079975;28;20637;-54
2022/05/23 02:17:45;;;;;;;7.05;4.80;;;;;;;;;;2082130;28;20184;-54
2022/05/23 02:18:45;;;;;;;5.07;4.18;;;;;;;;;;2081502;28;20184;-56
2022/05/23 02:19:47;;;;;;;6.28;4.38;;;;;;;;;;2073259;28;20553;-57
2022/05/23 02:20:52;;;;;;;4.25;3.85;;;;;;;;;;2074170;28;20231;-57
2022/05/23 02:21:52;;;;;;;5.63;3.80;;;;;;;;;;2081651;28;20641;-57
2022/05/23 02:22:54;;;;;;;7.63;4.75;;;;;;;;;;2081431;28;20188;-56
2022/05/23 02:23:56;;;;;;;4.88;4.00;;;;;;;;;;2073171;28;20781;-55
2022/05/23 02:24:57;;;;;;;6.18;4.30;;;;;;;;;;2081051;28;20175;-59
2022/05/23 02:25:57;;;;;;;5.20;3.97;;;;;;;;;;2073320;28;20927;-56
2022/05/23 02:27:22;;;;;;;5.57;4.47;;;;;;;;;;2068217;28;20757;-57
2022/05/23 02:28:22;;;;;;;5.25;3.95;;;;;;;;;;2073219;28;20288;-60
2022/05/23 02:29:23;;;;;;;6.35;4.15;;;;;;;;;;2075687;28;20176;-57
2022/05/23 02:30:23;;;;;;;5.45;4.45;;;;;;;;;;2082312;28;20668;-57
2022/05/23 02:31:27;;;;;;;4.38;3.78;;;;;;;;;;2073560;28;20191;-57
2022/05/23 02:32:40;;;;;;;4.53;4.05;;;;;;;;;;2069375;28;20162;-57
2022/05/23 02:33:44;;;;;;;5.03;4.53;;;;;;;;;;2073581;28;20713;-57
2022/05/23 02:35:00;;;;;;;5.43;4.43;;;;;;;;;;2081734;28;20176;-56
2022/05/23 02:36:01;;;;;;;4.82;4.43;;;;;;;;;;2073117;28;20791;-55
2022/05/23 02:37:02;;;;;;;4.40;4.00;;;;;;;;;;2073267;28;20173;-56
2022/05/23 02:38:31;;;;;;;5.43;4.30;;;;;;;;;;2076776;28;20188;-55
2022/05/23 02:39:32;;;;;;;4.90;3.90;;;;;;;;;;2081931;28;20183;-57
2022/05/23 02:40:32;;;;;;;6.95;4.53;;;;;;;;;;2081492;28;20180;-56
2022/05/23 02:41:33;;;;;;;5.10;4.47;;;;;;;;;;2081267;28;20173;-57
2022/05/23 02:42:34;;;;;;;5.45;4.30;;;;;;;;;;2064773;28;20196;-57
2022/05/23 02:43:37;;;;;;;6.35;4.38;;;;;;;;;;2065150;28;20216;-56
2022/05/23 02:44:38;;;;;;;5.25;4.68;;;;;;;;;;2071919;28;20179;-57
2022/05/23 02:45:42;;;;;;;4.72;4.32;;;;;;;;;;2073495;28;20207;-58
2022/05/23 02:46:42;;;;;;;9.13;4.55;;;;;;;;;;2081289;28;20663;-56
2022/05/23 02:47:46;;;;;;;5.45;4.80;;;;;;;;;;2081356;28;20659;-56
2022/05/23 02:48:47;;;;;;;7.07;4.80;;;;;;;;;;2071632;28;20184;-57
2022/05/23 02:49:47;;;;;;;6.68;4.80;;;;;;;;;;2081583;28;20176;-57
2022/05/23 02:50:57;;;;;;;4.88;4.43;;;;;;;;;;2081764;28;20188;-59
2022/05/23 02:51:58;;;;;;;5.57;5.07;;;;;;;;;;2081875;28;20637;-56
2022/05/23 02:53:03;;;;;;;6.55;4.32;;;;;;;;;;2074274;28;20169;-56
2022/05/23 02:54:11;;;;;;;5.55;4.72;;;;;;;;;;2072960;28;20480;-59
2022/05/23 02:55:13;;;;;;;6.38;4.80;;;;;;;;;;2081951;28;20180;-57
2022/05/23 02:56:14;;;;;;;7.82;5.05;;;;;;;;;;2082006;28;20667;-59
2022/05/23 02:57:14;;;;;;;6.15;5.05;;;;;;;;;;2073539;28;20181;-56
2022/05/23 02:58:14;;;;;;;8.10;4.68;;;;;;;;;;2073143;28;20181;-58
2022/05/23 02:59:14;;;;;;;8.18;6.95;;;;;;;;;;2076872;28;20593;-55
2022/05/23 03:00:15;;;;;;;8.27;5.90;;;;;;;;;;2081126;28;20176;-54
2022/05/23 03:01:19;;;;;;;6.40;5.05;;;;;;;;;;2081008;28;20684;-55
2022/05/23 03:03:39;;;;;;;8.50;5.05;;;;;;;;;;2081317;28;20160;-56
2022/05/23 03:04:39;;;;;;;6.93;5.07;;;;;;;;;;2080233;28;20204;-57
2022/05/23 03:05:42;;;;;;;6.65;6.05;;;;;;;;;;2081162;28;20836;-57
2022/05/23 03:06:42;;;;;;;5.53;5.00;;;;;;;;;;2081451;28;20164;-57
2022/05/23 03:07:42;;;;;;;5.40;4.82;;;;;;;;;;2082139;28;20176;-60
2022/05/23 03:08:43;;;;;;;10.85;7.93;;;;;;;;;;2081246;28;20190;-56
2022/05/23 03:09:44;;;;;;;6.10;5.50;;;;;;;;;;2081132;28;20204;-57
2022/05/23 03:10:52;;;;;;;6.57;5.43;;;;;;;;;;2073137;28;20164;-56
2022/05/23 03:11:54;;;;;;;9.20;5.43;;;;;;;;;;2074813;28;20165;-54
2022/05/23 03:12:58;;;;;;;14.30;9.80;;;;;;;;;;2082706;28;20203;-57
2022/05/23 03:13:59;;;;;;;8.18;5.88;;;;;;;;;;2074586;28;20204;-58
2022/05/23 03:15:00;;;;;;;6.60;6.00;;;;;;;;;;2076736;28;20185;-56
2022/05/23 03:16:00;;;;;;;7.13;5.45;;;;;;;;;;2091537;28;20214;-53
2022/05/23 03:17:02;;;;;;;6.13;5.13;;;;;;;;;;2095286;28;20175;-57
2022/05/23 03:18:04;;;;;;;6.47;5.07;;;;;;;;;;2080189;28;20177;-60
2022/05/23 03:19:05;;;;;;;8.00;5.85;;;;;;;;;;2080798;28;20172;-56
2022/05/23 03:20:07;;;;;;;7.57;5.47;;;;;;;;;;2087699;28;20214;-54
2022/05/23 03:21:10;;;;;;;8.73;5.85;;;;;;;;;;2080341;28;20172;-54
2022/05/23 03:27:33;;;;;;;8.75;5.80;;;;;;;;;;2052812;29;20190;-56
2022/05/23 03:28:45;;;;;;;7.07;5.78;;;;;;;;;;2075028;28;20232;-58
2022/05/23 03:29:45;;;;;;;6.93;5.82;;;;;;;;;;2082065;28;20176;-58
2022/05/23 03:30:46;;;;;;;7.18;5.20;;;;;;;;;;2081754;28;20187;-56
2022/05/23 03:31:47;;;;;;;8.82;6.03;;;;;;;;;;2073295;28;20624;-54
2022/05/23 03:32:47;;;;;;;6.45;5.85;;;;;;;;;;2065551;28;20605;-58
2022/05/23 03:33:47;;;;;;;6.20;5.60;;;;;;;;;;2074107;28;20169;-55
2022/05/23 03:34:48;;;;;;;9.38;6.53;;;;;;;;;;2080759;28;20187;-57
2022/05/23 03:35:53;;;;;;;6.68;5.50;;;;;;;;;;2074317;28;20193;-58
2022/05/23 03:36:53;;;;;;;9.70;6.53;;;;;;;;;;2066128;28;20208;-53
2022/05/23 03:37:53;;;;;;;8.27;5.85;;;;;;;;;;2066351;28;20169;-53
2022/05/23 03:38:54;;;;;;;9.07;6.57;;;;;;;;;;2066142;28;20180;-56
2022/05/23 03:39:54;;;;;;;7.32;6.53;;;;;;;;;;2075176;28;20177;-57
2022/05/23 03:40:55;;;;;;;7.28;6.45;;;;;;;;;;2082332;28;20616;-56
2022/05/23 03:41:55;;;;;;;10.60;6.22;;;;;;;;;;2075104;28;20195;-55
2022/05/23 03:42:56;;;;;;;11.80;6.68;;;;;;;;;;2083176;28;20556;-57
2022/05/23 03:43:56;;;;;;;8.52;6.97;;;;;;;;;;2074832;28;20211;-57
2022/05/23 03:44:57;;;;;;;6.80;5.53;;;;;;;;;;2083792;28;20183;-55
2022/05/23 03:46:07;;;;;;;8.00;5.93;;;;;;;;;;2076795;28;20200;-56
2022/05/23 03:47:08;;;;;;;9.38;6.28;;;;;;;;;;2076017;28;20261;-53
2022/05/23 03:48:08;;;;;;;8.43;7.53;;;;;;;;;;2083318;28;20165;-56
2022/05/23 03:49:08;;;;;;;8.23;6.45;;;;;;;;;;2083164;28;20176;-55
2022/05/23 03:50:10;;;;;;;8.35;7.07;;;;;;;;;;2075117;28;20644;-56
2022/05/23 03:51:11;;;;;;;9.80;6.63;;;;;;;;;;2075582;28;20172;-54
2022/05/23 03:52:11;;;;;;;11.32;7.70;;;;;;;;;;2070400;28;20174;-54
2022/05/23 03:53:12;;;;;;;10.45;7.97;;;;;;;;;;2063998;28;20162;-57
2022/05/23 03:54:17;;;;;;;9.10;7.35;;;;;;;;;;2067052;28;20272;-54
2022/05/23 03:55:20;;;;;;;10.85;6.95;;;;;;;;;;2075121;28;20180;-55
2022/05/23 03:56:23;;;;;;;8.55;6.72;;;;;;;;;;2067105;28;20553;-54
2022/05/23 03:57:28;;;;;;;9.07;6.72;;;;;;;;;;2067768;28;20177;-57
2022/05/23 03:58:28;;;;;;;8.70;6.55;;;;;;;;;;2075028;28;20613;-56
2022/05/23 03:59:54;;;;;;;7.50;6.68;;;;;;;;;;2082335;28;20201;-56
2022/05/23 04:01:11;;;;;;;8.10;7.13;;;;;;;;;;2083266;28;20262;-56
2022/05/23 04:02:11;;;;;;;8.27;6.75;;;;;;;;;;2083608;28;20184;-55
2022/05/23 04:03:14;;;;;;;10.48;7.22;;;;;;;;;;2075166;28;20175;-54
2022/05/23 04:04:14;;;;;;;10.68;7.03;;;;;;;;;;2074416;28;20193;-59
2022/05/23 04:05:25;;;;;;;9.85;7.28;;;;;;;;;;2084282;28;20218;-54
2022/05/23 04:06:29;;;;;;;10.48;6.93;;;;;;;;;;2082980;28;20156;-52
2022/05/23 04:07:40;;;;;;;9.82;6.85;;;;;;;;;;2081947;28;20177;-55
2022/05/23 04:08:49;;;;;;;7.55;6.85;;;;;;;;;;2076071;28;20168;-57
2022/05/23 04:09:49;;;;;;;6.93;6.30;;;;;;;;;;2075119;28;20177;-50
2022/05/23 04:10:53;;;;;;;10.85;6.85;;;;;;;;;;2075645;28;20200;-54
2022/05/23 04:11:56;;;;;;;7.57;6.88;;;;;;;;;;2076183;28;20173;-54
2022/05/23 04:12:57;;;;;;;7.47;6.72;;;;;;;;;;2075558;28;20168;-57
2022/05/23 04:13:58;;;;;;;7.45;6.60;;;;;;;;;;2076705;28;20181;-56
2022/05/23 04:14:59;;;;;;;10.80;7.50;;;;;;;;;;2075681;28;20239;-55
2022/05/23 04:16:03;;;;;;;10.13;7.00;;;;;;;;;;2076838;28;20382;-56
2022/05/23 04:17:06;;;;;;;12.38;7.78;;;;;;;;;;2075623;28;20211;-53
2022/05/23 04:18:09;;;;;;;9.10;7.20;;;;;;;;;;2083491;28;20172;-57
2022/05/23 04:19:09;;;;;;;9.30;7.50;;;;;;;;;;2094006;28;20224;-57
2022/05/23 04:20:17;;;;;;;7.90;7.07;;;;;;;;;;2087290;28;20176;-54
2022/05/23 04:21:38;;;;;;;8.23;6.47;;;;;;;;;;2086438;28;20183;-57
2022/05/23 04:22:39;;;;;;;9.70;7.03;;;;;;;;;;2075620;28;20784;-54
2022/05/23 04:23:46;;;;;;;10.43;6.85;;;;;;;;;;2075110;28;20164;-57
2022/05/23 04:24:47;;;;;;;12.18;7.38;;;;;;;;;;2074582;28;20196;-56
2022/05/23 04:25:48;;;;;;;11.05;6.90;;;;;;;;;;2074881;28;20259;-56
2022/05/23 04:26:54;;;;;;;9.70;7.32;;;;;;;;;;2084157;28;20169;-58
2022/05/23 04:27:56;;;;;;;11.15;7.15;;;;;;;;;;2084808;28;20263;-57
2022/05/23 04:28:57;;;;;;;9.35;7.28;;;;;;;;;;2076331;28;20179;-57
2022/05/23 04:29:57;;;;;;;8.60;7.00;;;;;;;;;;2076117;28;20173;-58
2022/05/23 04:31:21;;;;;;;9.00;7.47;;;;;;;;;;2077375;28;20179;-58
2022/05/23 04:35:30;;;;;;;9.25;7.22;;;;;;;;;;2080712;28;20708;-56
2022/05/23 04:36:32;;;;;;;8.68;7.13;;;;;;;;;;2076331;28;20208;-57
2022/05/23 04:37:33;;;;;;;7.45;6.57;;;;;;;;;;2077054;28;20181;-58
2022/05/23 04:38:33;;;;;;;7.68;7.00;;;;;;;;;;2080567;28;20618;-57
2022/05/23 04:39:36;;;;;;;9.10;6.13;;;;;;;;;;2076106;28;20208;-57
2022/05/23 04:40:37;;;;;;;9.95;6.60;;;;;;;;;;2075383;28;20188;-55
2022/05/23 04:41:38;;;;;;;7.43;6.70;;;;;;;;;;2092970;28;20175;-53
2022/05/23 04:42:39;;;;;;;10.05;6.88;;;;;;;;;;2084262;28;20644;-54
2022/05/23 04:43:40;;;;;;;10.05;6.90;;;;;;;;;;2075255;28;20180;-56
2022/05/23 04:44:41;;;;;;;8.40;6.60;;;;;;;;;;2081119;28;20175;-55
2022/05/23 04:45:43;;;;;;;9.02;6.97;;;;;;;;;;2075692;28;20200;-57
2022/05/23 04:49:49;;;;;;;9.25;6.60;;;;;;;;;;2069474;28;20166;-57
2022/05/23 04:51:09;;;;;;;7.57;6.28;;;;;;;;;;2080045;28;20222;-58
2022/05/23 04:52:19;;;;;;;8.43;6.95;;;;;;;;;;2074778;28;20172;-54
2022/05/23 04:53:19;;;;;;;6.80;6.15;;;;;;;;;;2066513;28;20638;-55
2022/05/23 04:54:49;;;;;;;7.97;6.32;;;;;;;;;;2066560;28;20176;-57
2022/05/23 04:55:50;;;;;;;7.68;6.70;;;;;;;;;;2080099;28;20263;-55
2022/05/23 04:56:50;;;;;;;10.82;6.78;;;;;;;;;;2071900;28;20672;-57
2022/05/23 04:57:53;;;;;;;9.38;8.00;;;;;;;;;;2084328;28;20177;-55
2022/05/23 04:58:55;;;;;;;7.78;6.88;;;;;;;;;;2074103;28;20208;-56
2022/05/23 04:59:55;;;;;;;11.25;7.60;;;;;;;;;;2074508;28;20211;-57
2022/05/23 05:01:01;;;;;;;10.57;7.03;;;;;;;;;;2077717;28;20177;-57
2022/05/23 05:02:03;;;;;;;17.00;8.13;;;;;;;;;;2082559;28;20160;-56
2022/05/23 05:03:03;;;;;;;10.75;7.50;;;;;;;;;;2082273;28;20181;-57
2022/05/23 05:04:30;;;;;;;8.20;7.40;;;;;;;;;;2088127;28;20195;-56
2022/05/23 05:05:33;;;;;;;9.02;7.05;;;;;;;;;;2090418;28;20207;-55
2022/05/23 05:06:33;;;;;;;17.73;7.30;;;;;;;;;;2082278;28;20179;-58
2022/05/23 05:07:34;;;;;;;8.20;6.68;;;;;;;;;;2082381;28;20288;-55
2022/05/23 05:08:35;;;;;;;8.75;6.82;;;;;;;;;;2090537;28;20572;-56
2022/05/23 05:09:36;;;;;;;7.55;6.82;;;;;;;;;;2090456;28;20194;-57
2022/05/23 05:10:39;;;;;;;9.55;6.90;;;;;;;;;;2082541;28;20191;-57
2022/05/23 05:11:40;;;;;;;7.32;6.32;;;;;;;;;;2082906;28;20200;-57
2022/05/23 05:12:45;;;;;;;11.57;8.80;;;;;;;;;;2091341;28;20168;-57
2022/05/23 05:13:49;;;;;;;9.18;6.82;;;;;;;;;;2091000;28;20163;-57
2022/05/23 05:14:49;;;;;;;10.15;6.95;;;;;;;;;;2090502;28;20172;-58
2022/05/23 05:15:52;;;;;;;10.45;7.32;;;;;;;;;;2082634;28;20211;-57
2022/05/23 05:17:02;;;;;;;7.78;7.07;;;;;;;;;;2069322;28;20150;-56
2022/05/23 05:18:04;;;;;;;12.82;6.65;;;;;;;;;;2069921;28;20178;-57
2022/05/23 05:19:08;;;;;;;9.40;7.03;;;;;;;;;;2083285;28;20168;-58
2022/05/23 05:20:34;;;;;;;7.45;6.85;;;;;;;;;;2090863;28;20529;-57
2022/05/23 05:21:34;;;;;;;9.90;6.63;;;;;;;;;;2083423;28;20210;-56
2022/05/23 05:22:53;;;;;;;9.82;7.00;;;;;;;;;;2084663;28;20684;-59
2022/05/23 05:24:12;;;;;;;7.05;6.35;;;;;;;;;;2083469;28;20685;-56
2022/05/23 05:25:21;;;;;;;8.40;6.72;;;;;;;;;;2083459;28;20664;-58
2022/05/23 05:26:30;;;;;;;7.10;6.40;;;;;;;;;;2078187;28;20169;-57
2022/05/23 05:27:31;;;;;;;10.57;6.93;;;;;;;;;;2090825;28;20167;-55
2022/05/23 05:28:31;;;;;;;7.88;6.95;;;;;;;;;;2074333;28;20644;-58
2022/05/23 05:29:32;;;;;;;10.73;7.05;;;;;;;;;;2082589;28;20252;-57
2022/05/23 05:30:33;;;;;;;7.35;6.65;;;;;;;;;;2082283;28;20230;-57
2022/05/23 05:31:43;;;;;;;8.90;6.95;;;;;;;;;;2075269;28;20181;-57
2022/05/23 05:32:49;;;;;;;8.77;6.45;;;;;;;;;;2083714;28;20167;-59
2022/05/23 05:33:52;;;;;;;10.85;6.40;;;;;;;;;;2088784;28;20214;-56
2022/05/23 05:34:56;;;;;;;7.20;6.55;;;;;;;;;;2067957;28;20181;-57
2022/05/23 05:36:06;;;;;;;8.85;6.60;;;;;;;;;;2079661;28;20279;-57
2022/05/23 05:37:12;;;;;;;8.05;6.85;;;;;;;;;;2083058;28;20651;-60
2022/05/23 05:38:15;;;;;;;7.38;6.72;;;;;;;;;;2081884;28;20176;-57
2022/05/23 05:39:18;;;;;;;9.63;6.32;;;;;;;;;;2081868;28;20188;-56
2022/05/23 05:40:20;;;;;;;7.72;7.03;;;;;;;;;;2081989;28;20199;-57
2022/05/23 05:41:24;;;;;;;9.98;6.95;;;;;;;;;;2082451;28;20172;-57
2022/05/23 05:42:31;;;;;;;7.70;6.57;;;;;;;;;;2074273;28;20259;-59
2022/05/23 05:43:33;;;;;;;9.02;6.60;;;;;;;;;;2075053;28;20177;-57
2022/05/23 05:44:42;;;;;;;7.75;6.60;;;;;;;;;;2081977;28;20188;-57
2022/05/23 05:45:44;;;;;;;9.88;6.40;;;;;;;;;;2082303;28;20188;-56
2022/05/23 05:47:05;;;;;;;7.40;6.18;;;;;;;;;;2090125;28;20187;-57
2022/05/23 05:48:07;;;;;;;8.77;7.07;;;;;;;;;;2089750;28;20170;-56
2022/05/23 05:49:12;;;;;;;10.13;6.85;;;;;;;;;;2067544;28;20181;-57
2022/05/23 05:50:17;;;;;;;8.38;7.13;;;;;;;;;;2066685;28;20174;-56
2022/05/23 05:51:35;;;;;;;10.77;7.07;;;;;;;;;;2076458;28;20180;-57
2022/05/23 05:52:55;;;;;;;9.38;6.95;;;;;;;;;;2075942;28;20214;-56
2022/05/23 05:53:55;;;;;;;9.35;6.72;;;;;;;;;;2073301;28;20184;-56
2022/05/23 05:55:09;;;;;;;6.57;5.97;;;;;;;;;;2073100;28;20765;-55
2022/05/23 05:56:10;;;;;;;7.47;6.57;;;;;;;;;;2067306;28;20224;-56
2022/05/23 05:57:11;;;;;;;7.72;6.93;;;;;;;;;;2081518;28;20265;-57
2022/05/23 05:58:13;;;;;;;9.10;6.70;;;;;;;;;;2078983;28;20263;-57
2022/05/23 05:59:21;;;;;;;9.35;6.75;;;;;;;;;;2077845;28;20593;-56
2022/05/23 06:00:22;;;;;;;7.55;6.10;;;;;;;;;;2076894;28;20177;-54
2022/05/23 06:01:27;;;;;;;9.25;6.68;;;;;;;;;;2069649;28;20169;-54
2022/05/23 06:02:28;;;;;;;8.98;6.55;;;;;;;;;;2069199;28;20244;-55
2022/05/23 06:03:28;;;;;;;6.95;6.13;;;;;;;;;;2068712;28;20177;-56
2022/05/23 06:04:38;;;;;;;9.18;6.32;;;;;;;;;;2081773;28;20176;-53
2022/05/23 06:11:26;;;;;;;10.73;7.72;;;;;;;;;;2081873;28;20210;-54
2022/05/23 06:12:39;;;;;;;7.15;6.55;;;;;;;;;;2081045;28;20172;-56
2022/05/23 06:13:59;;;;;;;10.93;6.78;;;;;;;;;;2077966;28;20634;-59
2022/05/23 06:15:09;;;;;;;6.97;6.22;;;;;;;;;;2077720;28;20185;-57
2022/05/23 06:16:10;;;;;;;9.68;7.32;;;;;;;;;;2080616;23;20225;-56
2022/05/23 06:17:22;;;;;;;9.45;7.55;;;;;;;;;;2074698;28;20180;-58
2022/05/23 06:18:28;;;;;;;8.27;6.15;;;;;;;;;;2074133;28;20672;-57
2022/05/23 06:19:28;;;;;;;6.85;6.15;;;;;;;;;;2068303;28;20226;-56
2022/05/23 06:20:35;;;;;;;8.18;6.60;;;;;;;;;;2070780;28;20181;-56
2022/05/23 06:21:35;;;;;;;7.38;6.10;;;;;;;;;;2077964;28;20654;-56
2022/05/23 06:22:35;;;;;;;7.45;6.68;;;;;;;;;;2078016;28;20940;-54
2022/05/23 06:23:46;;;;;;;9.90;7.18;;;;;;;;;;2067685;28;20166;-51
2022/05/23 06:25:03;;;;;;;7.57;6.85;;;;;;;;;;2070062;28;20560;-51
2022/05/23 06:26:04;;;;;;;9.82;6.50;;;;;;;;;;2065613;28;20288;-52
2022/05/23 06:27:24;;;;;;;10.07;6.25;;;;;;;;;;2073160;28;20171;-57
2022/05/23 06:28:37;;;;;;;8.35;6.40;;;;;;;;;;2073246;28;20627;-54
2022/05/23 06:29:41;;;;;;;7.25;6.55;;;;;;;;;;2061777;28;20231;-53
2022/05/23 06:31:02;;;;;;;7.45;5.97;;;;;;;;;;2069136;28;20183;-57
2022/05/23 06:32:09;;;;;;;6.88;6.18;;;;;;;;;;2072935;28;20308;-54
2022/05/23 06:33:10;;;;;;;7.90;6.68;;;;;;;;;;2068050;28;20728;-50
2022/05/23 06:34:29;;;;;;;12.45;6.15;;;;;;;;;;2065143;28;20307;-56
2022/05/23 06:35:29;;;;;;;7.10;6.38;;;;;;;;;;2061205;28;20189;-56
2022/05/23 06:36:30;;;;;;;9.85;5.40;;;;;;;;;;2069680;28;20786;-56
2022/05/23 06:37:35;;;;;;;7.47;6.78;;;;;;;;;;2070329;28;20239;-56
2022/05/23 06:38:45;;;;;;;7.03;6.43;;;;;;;;;;2069694;28;20180;-52
2022/05/23 06:40:05;;;;;;;7.40;6.57;;;;;;;;;;2067819;28;20904;-55
2022/05/23 06:41:24;;;;;;;6.72;5.70;;;;;;;;;;2067431;28;20638;-53
2022/05/23 06:42:38;;;;;;;11.88;7.82;;;;;;;;;;2075739;28;20172;-54
2022/05/23 06:43:58;;;;;;;8.13;6.20;;;;;;;;;;2068647;28;20205;-47
2022/05/23 06:45:10;;;;;;;7.78;5.72;;;;;;;;;;2068767;28;20161;-53
2022/05/23 06:46:33;;;;;;;9.77;6.40;;;;;;;;;;2075731;28;20238;-53
2022/05/23 06:47:33;;;;;;;7.15;5.93;;;;;;;;;;2069784;28;20165;-53
2022/05/23 06:48:53;;;;;;;9.10;6.18;;;;;;;;;;2068626;28;20177;-51
2022/05/23 06:50:06;;;;;;;8.57;6.45;;;;;;;;;;2067807;28;20192;-54
2022/05/23 06:51:40;;;;;;;8.50;6.85;;;;;;;;;;2066981;28;20182;-53
2022/05/23 06:52:40;;;;;;;7.57;6.78;;;;;;;;;;2065247;28;20634;-55
2022/05/23 06:54:13;;;;;;;9.35;7.15;;;;;;;;;;2056295;28;20190;-54